Aeroporto :
LOGIN :

Iscrizione | Disclaimer

   EN    FR    IT 

 










Sommario :    VFR   VFR Marginale   IFR   IFR Intensivo   IFR Molto Intensivo
Visibilità : 
Base nubi : 
>= 8 km
>= 3000ft
5 / 8 km
1000 / 3000 ft
1500m / 5 km
500 / 1000 ft
800 / 1500m
200 / 500 ft
< 800m
< 200 ft
Simboli :   Temporali  Nebbia  Neve Forte  Precipitazioni Forti  Vento > 20 kt
SIGMETs :   Varie  Temporali  Ghiacco  Turbolenza  Onda orograficha  Ceneri Vulcaniche






- Altitudine del aeroporto : 200 ft


EBBL - Klein Brogel AB

ULTIMO METAR :
  • 191655Z AUTO 22003KT 9999 -RA BKN032/// 23/17 Q1014 BLU

METARs OBSOLETI :
  • 191625Z AUTO 24006KT 9999 BKN049/// OVC100/// 24/17 Q1014 BLU
  • 191555Z AUTO 26006KT 9999 FEW031/// BKN055/// 24/17 Q1014 BLU
  • 191525Z AUTO 25007KT 9999 OVC035/// 24/17 Q1014 BLU
  • 191512Z 24007KT 9999 FEW035 BKN055 24/17 Q1014 BLU FCST CANCEL
  • 191455Z 22007KT 9999 FEW035 BKN055 25/17 Q1014 BLU BLU
  • 191425Z 25007KT 9999 SCT028 BKN055 24/17 Q1014 BLU BLU
  • 191355Z 26008KT 9999 SCT028 BKN055 24/17 Q1014 BLU BLU

TAF TAF EBBL
Valido dal 19 a 13 ore il 19 a 22 ore UTC


191141Z 1913/1922 28008KT 9999 SCT030
TEMPO 1913/1920 28008G18KT 5000 -SHRA SCT025TCU BKN030
TEMPO 1913/1920 27008G20KT 4000 SHRA SCT020TCU BKN030
PROB30
TEMPO 1916/1919 28010G22KT 2000 -TSRA SCT010 SCT015CB BKN030



MetMap, La meteo Aeronautica in un colpo d'occhio ! - Copyright ORBIFLY Dicembre 2007 - Disclaimer

ORBIFLY MET'MAP TEAM :

Programmazione e sviluppo : Alexandra Zaïnal
Concezione : Baudouin d'Aumeries
Supporto tecnico e logistico : Manuel Goepfert
Aiuto : Marc-Olivier Méhu
Aiuto per la traduzione : Arnaldo La Scala




FONTI E CREDITI :

   NOAA